createdAt,value
2019-06-13T00:00:44.258Z,15.69
2019-06-13T00:01:44.227Z,15.60
2019-06-13T00:02:44.212Z,15.59
2019-06-13T00:03:44.199Z,15.54
2019-06-13T00:04:44.179Z,15.54
2019-06-13T00:05:46.347Z,15.62
2019-06-13T00:06:44.148Z,15.59
2019-06-13T00:07:44.133Z,15.58
2019-06-13T00:08:44.117Z,15.50
2019-06-13T00:09:44.099Z,15.47
2019-06-13T00:10:44.084Z,15.48
2019-06-13T00:11:44.067Z,15.48
2019-06-13T00:12:44.050Z,15.48
2019-06-13T00:13:44.036Z,15.44
2019-06-13T00:14:44.066Z,15.45
2019-06-13T00:15:44.004Z,15.47
2019-06-13T00:16:43.990Z,15.23
2019-06-13T00:17:43.981Z,15.23
2019-06-13T00:18:43.958Z,15.26
2019-06-13T00:19:43.940Z,15.29
2019-06-13T00:20:43.925Z,15.33
2019-06-13T00:21:43.906Z,15.36
2019-06-13T00:22:43.890Z,15.45
2019-06-13T00:23:43.876Z,15.44
2019-06-13T00:24:43.864Z,15.48
2019-06-13T00:25:43.856Z,15.51
2019-06-13T00:26:43.825Z,15.54
2019-06-13T00:27:43.809Z,15.54
2019-06-13T00:28:43.792Z,15.48
2019-06-13T00:29:43.780Z,15.44
2019-06-13T00:30:43.762Z,15.45
2019-06-13T00:31:43.743Z,15.45
2019-06-13T00:32:43.727Z,15.47
2019-06-13T00:33:43.713Z,15.40
2019-06-13T00:34:43.697Z,15.32
2019-06-13T00:35:57.421Z,15.27
2019-06-13T00:36:43.664Z,15.29
2019-06-13T00:37:43.647Z,15.14
2019-06-13T00:38:43.641Z,15.04
2019-06-13T00:39:43.616Z,14.97
2019-06-13T00:40:43.599Z,14.87
2019-06-13T00:41:43.585Z,14.89
2019-06-13T00:42:43.582Z,14.90
2019-06-13T00:43:43.551Z,14.90
2019-06-13T00:44:43.537Z,14.97
2019-06-13T00:45:43.524Z,15.03
2019-06-13T00:46:43.503Z,14.99
2019-06-13T00:47:43.487Z,15.08
2019-06-13T00:48:43.469Z,15.14
2019-06-13T00:49:43.455Z,15.22
2019-06-13T00:50:43.439Z,15.22
2019-06-13T00:51:43.419Z,15.17
2019-06-13T00:52:43.406Z,15.19
2019-06-13T00:53:43.392Z,15.20
2019-06-13T00:54:43.372Z,15.23
2019-06-13T00:55:43.358Z,15.15
2019-06-13T00:56:43.338Z,15.11
2019-06-13T00:57:43.323Z,15.08
2019-06-13T00:58:43.317Z,15.14
2019-06-13T00:59:43.298Z,15.05
2019-06-13T01:00:43.275Z,14.96
2019-06-13T01:01:43.262Z,15.07
2019-06-13T01:02:43.244Z,15.17
2019-06-13T01:03:43.226Z,15.14
2019-06-13T01:04:43.214Z,15.01
2019-06-13T01:05:43.193Z,15.04
2019-06-13T01:06:43.178Z,14.95
2019-06-13T01:07:43.160Z,14.87
2019-06-13T01:08:43.146Z,14.92
2019-06-13T01:09:43.130Z,14.93
2019-06-13T01:10:43.113Z,14.77
2019-06-13T01:11:43.099Z,14.78
2019-06-13T01:12:43.077Z,14.82
2019-06-13T01:13:43.072Z,14.78
2019-06-13T01:14:43.048Z,14.73
2019-06-13T01:15:43.031Z,14.74
2019-06-13T01:16:43.013Z,14.78
2019-06-13T01:17:42.999Z,14.73
2019-06-13T01:18:42.982Z,14.73
2019-06-13T01:19:42.965Z,14.78
2019-06-13T01:20:42.963Z,14.83
2019-06-13T01:21:42.935Z,14.74
2019-06-13T01:22:42.918Z,14.77
2019-06-13T01:23:42.900Z,14.77
2019-06-13T01:24:42.880Z,14.82
2019-06-13T01:25:42.869Z,14.79
2019-06-13T01:26:42.853Z,14.74
2019-06-13T01:27:42.832Z,14.87
2019-06-13T01:28:42.816Z,14.83
2019-06-13T01:29:42.800Z,14.86
2019-06-13T01:30:42.785Z,14.89
2019-06-13T01:31:42.771Z,14.87
2019-06-13T01:32:42.750Z,14.79
2019-06-13T01:33:42.735Z,14.82
2019-06-13T01:34:42.722Z,14.77
2019-06-13T01:35:42.703Z,14.82
2019-06-13T01:36:44.126Z,14.83
2019-06-13T01:37:42.677Z,14.74
2019-06-13T01:38:42.653Z,14.78
2019-06-13T01:39:42.634Z,14.82
2019-06-13T01:40:42.618Z,14.67
2019-06-13T01:41:42.615Z,14.69
2019-06-13T01:42:42.591Z,14.71
2019-06-13T01:43:42.571Z,14.71
2019-06-13T01:44:42.552Z,14.66
2019-06-13T01:45:42.539Z,14.69
2019-06-13T01:46:42.525Z,14.63
2019-06-13T01:47:42.504Z,14.58
2019-06-13T01:48:42.510Z,14.52
2019-06-13T01:49:42.470Z,14.58
2019-06-13T01:50:42.452Z,14.63
2019-06-13T01:51:42.445Z,14.66
2019-06-13T01:52:42.420Z,14.59
2019-06-13T01:53:42.402Z,14.63
2019-06-13T01:54:42.390Z,14.44
2019-06-13T01:55:42.373Z,14.52
2019-06-13T01:56:42.358Z,14.45
2019-06-13T01:57:42.336Z,14.55
2019-06-13T01:58:42.319Z,14.59
2019-06-13T01:59:42.304Z,14.58
2019-06-13T02:00:42.287Z,14.58
2019-06-13T02:01:42.271Z,14.69
2019-06-13T02:02:42.255Z,14.59
2019-06-13T02:03:42.243Z,14.49
2019-06-13T02:04:42.221Z,14.44
2019-06-13T02:05:42.208Z,14.49
2019-06-13T02:06:56.679Z,14.49
2019-06-13T02:07:42.170Z,14.51
2019-06-13T02:08:42.158Z,14.40
2019-06-13T02:09:42.142Z,14.46
2019-06-13T02:10:42.121Z,14.41
2019-06-13T02:11:42.102Z,14.34
2019-06-13T02:12:42.087Z,14.40
2019-06-13T02:13:42.071Z,14.37
2019-06-13T02:14:42.209Z,14.45
2019-06-13T02:15:42.034Z,14.28
2019-06-13T02:16:51.740Z,14.37
2019-06-13T02:17:42.003Z,14.37
2019-06-13T02:18:41.994Z,14.30
2019-06-13T02:19:41.986Z,14.27
2019-06-13T02:20:41.951Z,14.34
2019-06-13T02:21:41.939Z,14.23
2019-06-13T02:22:41.919Z,14.15
2019-06-13T02:23:41.901Z,14.03
2019-06-13T02:24:41.885Z,14.11
2019-06-13T02:25:41.869Z,14.16
2019-06-13T02:26:41.851Z,14.08
2019-06-13T02:27:41.835Z,14.18
2019-06-13T02:28:41.820Z,14.01
2019-06-13T02:29:41.802Z,14.09
2019-06-13T02:30:41.794Z,13.94
2019-06-13T02:31:49.864Z,13.98
2019-06-13T02:32:41.749Z,14.01
2019-06-13T02:33:41.735Z,14.01
2019-06-13T02:34:41.867Z,13.93
2019-06-13T02:35:41.699Z,13.94
2019-06-13T02:36:41.694Z,13.91
2019-06-13T02:37:44.214Z,13.83
2019-06-13T02:38:41.649Z,13.86
2019-06-13T02:39:41.635Z,13.85
2019-06-13T02:40:41.635Z,13.91
2019-06-13T02:41:41.600Z,13.88
2019-06-13T02:42:41.610Z,13.91
2019-06-13T02:43:41.916Z,13.91
2019-06-13T02:44:41.554Z,13.90
2019-06-13T02:45:41.529Z,13.86
2019-06-13T02:46:41.511Z,13.98
2019-06-13T02:47:41.497Z,13.93
2019-06-13T02:48:41.485Z,13.97
2019-06-13T02:49:42.555Z,14.03
2019-06-13T02:50:41.445Z,13.97
2019-06-13T02:51:41.515Z,14.09
2019-06-13T02:52:41.407Z,14.11
2019-06-13T02:53:41.797Z,14.08
2019-06-13T02:54:41.413Z,14.08
2019-06-13T02:55:41.368Z,14.16
2019-06-13T02:56:41.342Z,14.15
2019-06-13T02:57:41.322Z,14.23
2019-06-13T02:58:41.302Z,14.11
2019-06-13T02:59:41.291Z,14.12
2019-06-13T03:00:41.272Z,14.11
2019-06-13T03:01:41.252Z,14.13
2019-06-13T03:02:41.238Z,14.22
2019-06-13T03:03:41.219Z,14.18
2019-06-13T03:04:41.202Z,14.19
2019-06-13T03:05:41.183Z,14.28
2019-06-13T03:06:41.170Z,14.30
2019-06-13T03:07:45.360Z,14.31
2019-06-13T03:08:41.137Z,14.46
2019-06-13T03:09:41.125Z,14.27
2019-06-13T03:10:41.098Z,14.37
2019-06-13T03:11:41.095Z,14.37
2019-06-13T03:12:41.065Z,14.36
2019-06-13T03:13:41.052Z,14.37
2019-06-13T03:14:41.032Z,14.40
2019-06-13T03:15:41.013Z,14.41
2019-06-13T03:16:40.994Z,14.37
2019-06-13T03:17:40.995Z,14.38
2019-06-13T03:18:40.965Z,14.41
2019-06-13T03:19:40.963Z,14.44
2019-06-13T03:20:40.934Z,14.40
2019-06-13T03:21:40.913Z,14.44
2019-06-13T03:22:40.892Z,14.49
2019-06-13T03:23:40.875Z,14.49
2019-06-13T03:24:40.860Z,14.52
2019-06-13T03:25:40.843Z,14.55
2019-06-13T03:26:40.823Z,14.55
2019-06-13T03:27:40.807Z,14.46
2019-06-13T03:28:40.791Z,14.46
2019-06-13T03:29:40.783Z,14.46
2019-06-13T03:30:41.817Z,14.52
2019-06-13T03:31:41.434Z,14.51
2019-06-13T03:32:41.452Z,14.36
2019-06-13T03:33:41.360Z,14.40
2019-06-13T03:34:41.226Z,14.46
2019-06-13T03:35:40.674Z,14.51
2019-06-13T03:36:41.110Z,14.44
2019-06-13T03:37:56.735Z,14.38
2019-06-13T03:38:40.617Z,14.38
2019-06-13T03:39:40.606Z,14.36
2019-06-13T03:40:40.585Z,14.28
2019-06-13T03:41:41.317Z,14.27
2019-06-13T03:42:40.550Z,14.18
2019-06-13T03:43:40.534Z,14.21
2019-06-13T03:44:40.515Z,14.21
2019-06-13T03:45:40.496Z,14.13
2019-06-13T03:46:40.497Z,14.13
2019-06-13T03:47:40.467Z,14.15
2019-06-13T03:48:40.446Z,14.13
2019-06-13T03:49:40.428Z,14.19
2019-06-13T03:50:40.415Z,14.21
2019-06-13T03:51:41.154Z,14.18
2019-06-13T03:52:40.379Z,14.21
2019-06-13T03:53:40.359Z,14.26
2019-06-13T03:54:40.350Z,14.27
2019-06-13T03:55:40.330Z,14.31
2019-06-13T03:56:41.009Z,14.30
2019-06-13T03:57:40.641Z,14.31
2019-06-13T03:58:40.320Z,14.36
2019-06-13T03:59:40.255Z,14.30
2019-06-13T04:00:42.607Z,14.38
2019-06-13T04:01:40.255Z,14.33
2019-06-13T04:02:40.578Z,14.37
2019-06-13T04:03:40.189Z,14.40
2019-06-13T04:04:40.170Z,14.37
2019-06-13T04:05:40.379Z,14.44
2019-06-13T04:06:40.139Z,14.38
2019-06-13T04:07:40.121Z,14.38
2019-06-13T04:08:40.100Z,14.44
2019-06-13T04:09:40.083Z,14.36
2019-06-13T04:10:40.074Z,14.48
2019-06-13T04:11:40.054Z,14.36
2019-06-13T04:12:40.032Z,14.52
2019-06-13T04:13:40.021Z,14.49
2019-06-13T04:14:39.997Z,14.40
2019-06-13T04:15:40.074Z,14.49
2019-06-13T04:16:39.965Z,14.45
2019-06-13T04:17:39.945Z,14.55
2019-06-13T04:18:41.052Z,14.44
2019-06-13T04:19:39.920Z,14.61
2019-06-13T04:20:40.163Z,14.55
2019-06-13T04:21:39.879Z,14.59
2019-06-13T04:22:40.336Z,14.61
2019-06-13T04:23:39.852Z,14.66
2019-06-13T04:24:40.366Z,14.56
2019-06-13T04:25:40.023Z,14.52
2019-06-13T04:26:39.793Z,14.66
2019-06-13T04:27:39.782Z,14.69
2019-06-13T04:28:39.963Z,14.63
2019-06-13T04:29:39.789Z,14.67
2019-06-13T04:30:46.443Z,14.71
2019-06-13T04:31:39.708Z,14.77
2019-06-13T04:32:40.088Z,14.78
2019-06-13T04:33:39.673Z,14.82
2019-06-13T04:34:39.976Z,14.79
2019-06-13T04:35:40.066Z,14.78
2019-06-13T04:36:39.989Z,14.79
2019-06-13T04:37:40.190Z,14.78
2019-06-13T04:38:42.159Z,14.82
2019-06-13T04:39:39.584Z,14.82
2019-06-13T04:40:39.839Z,14.79
2019-06-13T04:41:39.713Z,14.87
2019-06-13T04:42:40.558Z,14.92
2019-06-13T04:43:40.294Z,14.89
2019-06-13T04:44:39.885Z,14.95
2019-06-13T04:45:39.731Z,14.97
2019-06-13T04:46:40.054Z,14.96
2019-06-13T04:47:41.046Z,14.96
2019-06-13T04:48:40.218Z,15.10
2019-06-13T04:49:39.752Z,15.08
2019-06-13T04:50:39.671Z,15.10
2019-06-13T04:51:39.584Z,15.12
2019-06-13T04:52:40.172Z,15.11
2019-06-13T04:53:39.862Z,15.11
2019-06-13T04:54:39.315Z,15.12
2019-06-13T04:55:42.531Z,15.23
2019-06-13T04:56:39.720Z,15.27
2019-06-13T04:57:40.084Z,15.25
2019-06-13T04:58:40.289Z,15.25
2019-06-13T04:59:39.380Z,15.27
2019-06-13T05:00:40.283Z,15.36
2019-06-13T05:01:42.091Z,15.33
2019-06-13T05:02:39.971Z,15.35
2019-06-13T05:03:41.762Z,15.36
2019-06-13T05:04:39.992Z,15.48
2019-06-13T05:05:39.966Z,15.43
2019-06-13T05:06:39.620Z,15.43
2019-06-13T05:07:40.622Z,15.43
2019-06-13T05:08:50.194Z,15.45
2019-06-13T05:09:39.061Z,15.44
2019-06-13T05:10:39.525Z,15.51
2019-06-13T05:11:40.379Z,15.60
2019-06-13T05:12:39.568Z,15.56
2019-06-13T05:13:40.128Z,15.60
2019-06-13T05:14:39.082Z,15.63
2019-06-13T05:15:39.506Z,15.58
2019-06-13T05:16:40.665Z,15.58
2019-06-13T05:17:40.765Z,15.65
2019-06-13T05:18:39.364Z,15.62
2019-06-13T05:19:39.262Z,15.68
2019-06-13T05:20:40.342Z,15.68
2019-06-13T05:21:39.202Z,15.73
2019-06-13T05:22:40.108Z,15.70
2019-06-13T05:23:39.161Z,15.84
2019-06-13T05:24:39.929Z,15.77
2019-06-13T05:25:39.188Z,15.99
2019-06-13T05:26:40.005Z,15.87
2019-06-13T05:27:40.092Z,15.90
2019-06-13T05:28:40.171Z,15.91
2019-06-13T05:29:40.281Z,16.00
2019-06-13T05:30:40.652Z,15.91
2019-06-13T05:31:40.203Z,15.98
2019-06-13T05:32:40.918Z,16.00
2019-06-13T05:33:39.336Z,15.98
2019-06-13T05:34:40.352Z,16.06
2019-06-13T05:35:40.076Z,16.10
2019-06-13T05:36:40.224Z,16.10
2019-06-13T05:37:40.314Z,16.14
2019-06-13T05:38:41.124Z,16.18
2019-06-13T05:39:39.832Z,16.32
2019-06-13T05:40:39.876Z,16.32
2019-06-13T05:41:39.944Z,16.37
2019-06-13T05:42:40.012Z,16.29
2019-06-13T05:43:50.525Z,16.34
2019-06-13T05:44:39.818Z,16.37
2019-06-13T05:45:43.917Z,16.44
2019-06-13T05:46:40.092Z,16.51
2019-06-13T05:47:40.843Z,16.49
2019-06-13T05:48:39.914Z,16.46
2019-06-13T05:49:39.388Z,16.57
2019-06-13T05:50:39.470Z,16.58
2019-06-13T05:51:40.133Z,16.62
2019-06-13T05:52:40.555Z,16.67
2019-06-13T05:53:39.966Z,16.58
2019-06-13T05:54:39.330Z,16.65
2019-06-13T05:55:40.421Z,16.70
2019-06-13T05:56:39.983Z,16.72
2019-06-13T05:57:39.270Z,16.70
2019-06-13T05:58:40.176Z,16.77
2019-06-13T05:59:40.469Z,16.70
2019-06-13T06:00:40.060Z,16.83
2019-06-13T06:01:40.809Z,16.88
2019-06-13T06:02:39.828Z,16.87
2019-06-13T06:03:40.221Z,16.94
2019-06-13T06:04:41.692Z,16.94
2019-06-13T06:05:38.937Z,16.88
2019-06-13T06:06:40.608Z,16.91
2019-06-13T06:07:39.373Z,16.87
2019-06-13T06:08:48.163Z,16.97
2019-06-13T06:09:42.212Z,16.83
2019-06-13T06:10:39.904Z,16.95
2019-06-13T06:11:39.399Z,17.01
2019-06-13T06:12:40.548Z,17.06
2019-06-13T06:13:39.223Z,17.16
2019-06-13T06:14:41.371Z,17.07
2019-06-13T06:15:40.232Z,17.19
2019-06-13T06:16:40.054Z,17.20
2019-06-13T06:17:40.707Z,17.20
2019-06-13T06:18:39.421Z,17.30
2019-06-13T06:19:40.509Z,17.31
2019-06-13T06:20:40.282Z,17.37
2019-06-13T06:21:39.721Z,17.37
2019-06-13T06:22:40.465Z,17.32
2019-06-13T06:23:39.342Z,17.43
2019-06-13T06:24:39.100Z,17.41
2019-06-13T06:25:41.086Z,17.45
2019-06-13T06:26:40.667Z,17.32
2019-06-13T06:27:39.496Z,17.38
2019-06-13T06:28:39.688Z,17.43
2019-06-13T06:29:40.107Z,17.47
2019-06-13T06:30:39.356Z,17.53
2019-06-13T06:31:39.770Z,17.53
2019-06-13T06:32:39.914Z,17.62
2019-06-13T06:33:39.973Z,17.59
2019-06-13T06:34:39.532Z,17.71
2019-06-13T06:35:39.454Z,17.71
2019-06-13T06:36:40.285Z,17.78
2019-06-13T06:37:40.249Z,17.79
2019-06-13T06:38:39.854Z,17.78
2019-06-13T06:39:52.283Z,17.83
2019-06-13T06:40:39.152Z,17.81
2019-06-13T06:41:39.896Z,17.83
2019-06-13T06:42:39.618Z,17.78
2019-06-13T06:43:39.253Z,17.79
2019-06-13T06:44:39.903Z,17.81
2019-06-13T06:45:39.790Z,17.83
2019-06-13T06:46:40.964Z,17.90
2019-06-13T06:47:40.042Z,17.90
2019-06-13T06:48:40.124Z,17.91
2019-06-13T06:49:39.379Z,18.03
2019-06-13T06:50:40.081Z,18.17
2019-06-13T06:51:39.911Z,18.11
2019-06-13T06:52:39.619Z,18.02
2019-06-13T06:53:40.008Z,18.02
2019-06-13T06:54:39.261Z,18.08
2019-06-13T06:55:39.857Z,18.03
2019-06-13T06:56:39.106Z,18.01
2019-06-13T06:57:40.098Z,18.01
2019-06-13T06:58:39.615Z,18.02
2019-06-13T06:59:39.640Z,17.94
2019-06-13T07:00:39.332Z,18.11
2019-06-13T07:01:39.586Z,18.12
2019-06-13T07:02:39.693Z,18.20
2019-06-13T07:03:39.960Z,18.18
2019-06-13T07:04:39.829Z,18.23
2019-06-13T07:05:40.137Z,18.34
2019-06-13T07:06:39.546Z,18.34
2019-06-13T07:07:40.187Z,18.48
2019-06-13T07:08:39.663Z,18.48
2019-06-13T07:09:37.139Z,18.54
2019-06-13T07:10:39.574Z,18.54
2019-06-13T07:11:39.407Z,18.66
2019-06-13T07:12:39.637Z,18.60
2019-06-13T07:13:39.665Z,18.60
2019-06-13T07:14:37.059Z,18.54
2019-06-13T07:15:40.014Z,18.61
2019-06-13T07:16:37.032Z,18.67
2019-06-13T07:17:39.372Z,18.75
2019-06-13T07:18:39.629Z,18.76
2019-06-13T07:19:36.990Z,18.81
2019-06-13T07:20:39.374Z,18.91
2019-06-13T07:21:36.966Z,18.93
2019-06-13T07:22:39.781Z,18.93
2019-06-13T07:23:39.344Z,18.96
2019-06-13T07:24:40.403Z,19.01
2019-06-13T07:25:39.661Z,19.07
2019-06-13T07:26:36.886Z,19.09
2019-06-13T07:27:39.499Z,19.08
2019-06-13T07:28:39.426Z,19.19
2019-06-13T07:29:39.617Z,19.15
2019-06-13T07:30:36.833Z,18.94
2019-06-13T07:31:39.843Z,19.05
2019-06-13T07:32:36.812Z,19.15
2019-06-13T07:33:40.066Z,19.16
2019-06-13T07:34:39.495Z,19.19
2019-06-13T07:35:36.773Z,19.15
2019-06-13T07:36:39.112Z,19.19
2019-06-13T07:37:36.746Z,19.09
2019-06-13T07:38:39.214Z,19.24
2019-06-13T07:39:39.337Z,19.15
2019-06-13T07:40:39.504Z,19.32
2019-06-13T07:41:36.675Z,19.35
2019-06-13T07:42:39.406Z,19.38
2019-06-13T07:43:36.647Z,19.34
2019-06-13T07:44:36.631Z,19.38
2019-06-13T07:45:36.619Z,19.37
2019-06-13T07:46:39.342Z,19.42
2019-06-13T07:47:36.591Z,19.42
2019-06-13T07:48:36.574Z,19.49
2019-06-13T07:49:40.666Z,19.50
2019-06-13T07:50:39.181Z,19.39
2019-06-13T07:51:36.534Z,19.31
2019-06-13T07:52:39.374Z,19.47
2019-06-13T07:53:36.508Z,19.45
2019-06-13T07:54:36.495Z,19.45
2019-06-13T07:55:36.478Z,19.52
2019-06-13T07:56:36.466Z,19.64
2019-06-13T07:57:39.389Z,19.67
2019-06-13T07:58:36.445Z,19.64
2019-06-13T07:59:36.424Z,19.77
2019-06-13T08:00:36.410Z,19.84
2019-06-13T08:01:36.402Z,19.82
2019-06-13T08:02:36.385Z,19.87
2019-06-13T08:03:36.383Z,19.78
2019-06-13T08:04:36.921Z,19.82
2019-06-13T08:05:36.348Z,19.86
2019-06-13T08:06:41.474Z,19.89
2019-06-13T08:07:36.323Z,20.04
2019-06-13T08:08:39.135Z,20.14
2019-06-13T08:09:36.292Z,20.17
2019-06-13T08:10:48.735Z,20.25
2019-06-13T08:11:36.262Z,20.25
2019-06-13T08:12:36.253Z,20.25
2019-06-13T08:13:36.245Z,20.26
2019-06-13T08:14:36.224Z,20.25
2019-06-13T08:15:36.207Z,20.27
2019-06-13T08:16:36.193Z,20.27
2019-06-13T08:17:36.184Z,20.37
2019-06-13T08:18:36.169Z,20.26
2019-06-13T08:19:36.154Z,20.41
2019-06-13T08:20:36.140Z,20.50
2019-06-13T08:21:36.135Z,20.37
2019-06-13T08:22:36.116Z,20.36
2019-06-13T08:23:36.101Z,20.44
2019-06-13T08:24:36.090Z,20.27
2019-06-13T08:25:36.084Z,20.53
2019-06-13T08:26:36.061Z,20.52
2019-06-13T08:27:36.052Z,20.60
2019-06-13T08:28:36.052Z,20.64
2019-06-13T08:29:36.022Z,20.60
2019-06-13T08:30:36.024Z,20.58
2019-06-13T08:31:35.996Z,20.71
2019-06-13T08:32:35.985Z,20.70
2019-06-13T08:33:35.970Z,20.73
2019-06-13T08:34:35.960Z,20.73
2019-06-13T08:35:35.948Z,20.65
2019-06-13T08:36:35.932Z,20.80
2019-06-13T08:37:35.919Z,20.73
2019-06-13T08:38:35.909Z,20.71
2019-06-13T08:39:35.897Z,20.73
2019-06-13T08:40:35.882Z,20.71
2019-06-13T08:41:35.872Z,20.74
2019-06-13T08:42:35.857Z,20.74
2019-06-13T08:43:35.841Z,20.89
2019-06-13T08:44:35.835Z,21.04
2019-06-13T08:45:35.819Z,20.95
2019-06-13T08:46:35.810Z,21.14
2019-06-13T08:47:35.796Z,21.34
2019-06-13T08:48:35.785Z,21.48
2019-06-13T08:49:35.769Z,21.55
2019-06-13T08:50:35.769Z,21.65
2019-06-13T08:51:35.746Z,21.59
2019-06-13T08:52:35.739Z,21.48
2019-06-13T08:53:35.720Z,21.48
2019-06-13T08:54:35.709Z,21.34
2019-06-13T08:55:35.773Z,21.08
2019-06-13T08:56:35.692Z,21.11
2019-06-13T08:57:35.671Z,21.03
2019-06-13T08:58:35.659Z,21.11
2019-06-13T08:59:35.648Z,21.40
2019-06-13T09:00:35.636Z,21.59
2019-06-13T09:01:35.621Z,21.60
2019-06-13T09:02:35.617Z,21.82
2019-06-13T09:03:35.599Z,21.84
2019-06-13T09:04:35.591Z,21.78
2019-06-13T09:05:35.582Z,21.97
2019-06-13T09:06:35.568Z,22.04
2019-06-13T09:07:35.608Z,22.13
2019-06-13T09:08:35.547Z,22.30
2019-06-13T09:09:35.533Z,22.23
2019-06-13T09:10:35.525Z,22.19
2019-06-13T09:11:39.464Z,22.40
2019-06-13T09:12:35.513Z,22.56
2019-06-13T09:13:35.493Z,22.77
2019-06-13T09:14:35.494Z,22.83
2019-06-13T09:15:35.475Z,22.92
2019-06-13T09:16:35.468Z,22.80
2019-06-13T09:17:35.470Z,22.78
2019-06-13T09:18:35.453Z,22.62
2019-06-13T09:19:35.438Z,22.52
2019-06-13T09:20:35.431Z,22.85
2019-06-13T09:21:35.420Z,22.83
2019-06-13T09:22:35.420Z,22.83
2019-06-13T09:23:35.403Z,22.59
2019-06-13T09:24:35.394Z,22.66
2019-06-13T09:25:35.391Z,22.64
2019-06-13T09:26:35.385Z,22.56
2019-06-13T09:27:35.371Z,22.58
2019-06-13T09:28:35.378Z,22.55
2019-06-13T09:29:35.432Z,22.28
2019-06-13T09:30:35.347Z,22.11
2019-06-13T09:31:35.334Z,22.07
2019-06-13T09:32:57.174Z,22.34
2019-06-13T09:33:35.321Z,22.40
2019-06-13T09:34:35.314Z,22.13
2019-06-13T09:35:35.307Z,22.09
2019-06-13T09:36:35.301Z,21.91
2019-06-13T09:37:35.291Z,21.96
2019-06-13T09:38:35.271Z,21.77
2019-06-13T09:39:35.262Z,21.93
2019-06-13T09:40:35.261Z,22.30
2019-06-13T09:42:00.124Z,22.13
2019-06-13T09:42:35.230Z,21.90
2019-06-13T09:43:35.220Z,22.16
2019-06-13T09:44:35.216Z,22.03
2019-06-13T09:45:35.927Z,22.11
2019-06-13T09:46:35.189Z,22.22
2019-06-13T09:47:35.181Z,22.55
2019-06-13T09:48:35.174Z,22.51
2019-06-13T09:49:35.163Z,22.74
2019-06-13T09:50:44.344Z,22.98
2019-06-13T09:51:35.141Z,23.08
2019-06-13T09:52:35.164Z,23.15
2019-06-13T09:53:35.140Z,23.08
2019-06-13T09:54:56.014Z,23.37
2019-06-13T09:55:35.105Z,23.36
2019-06-13T09:56:35.097Z,23.61
2019-06-13T09:57:35.087Z,23.86
2019-06-13T09:58:35.081Z,23.97
2019-06-13T09:59:35.088Z,23.69
2019-06-13T10:00:35.059Z,23.92
2019-06-13T10:01:35.060Z,24.18
2019-06-13T10:02:35.046Z,24.38
2019-06-13T10:03:35.032Z,24.52
2019-06-13T10:04:35.024Z,24.25
2019-06-13T10:05:35.017Z,24.52
2019-06-13T10:06:35.012Z,24.40
2019-06-13T10:07:35.017Z,24.04
2019-06-13T10:08:34.991Z,23.66
2019-06-13T10:09:34.988Z,23.36
2019-06-13T10:10:34.975Z,23.18
2019-06-13T10:11:34.965Z,23.25
2019-06-13T10:12:46.557Z,22.51
2019-06-13T10:13:34.962Z,22.49
2019-06-13T10:14:34.935Z,22.52
2019-06-13T10:36:20.046Z,22.06
2019-06-13T10:37:19.883Z,21.90
2019-06-13T10:38:37.533Z,21.98
2019-06-13T10:39:20.757Z,22.13
2019-06-13T10:40:20.262Z,22.11
2019-06-13T10:41:20.811Z,21.91
2019-06-13T10:43:23.896Z,21.62
2019-06-13T10:44:19.026Z,21.74
2019-06-13T10:45:20.379Z,21.77
2019-06-13T10:46:20.428Z,21.66
2019-06-13T10:47:20.371Z,21.63
2019-06-13T10:48:20.744Z,21.73
2019-06-13T10:49:19.884Z,21.98
2019-06-13T10:50:19.987Z,21.96
2019-06-13T10:51:21.633Z,21.90
2019-06-13T10:52:19.641Z,21.96
2019-06-13T10:53:27.887Z,22.09
2019-06-13T10:54:19.686Z,21.93
2019-06-13T10:55:20.364Z,21.93
2019-06-13T10:56:19.977Z,21.90
2019-06-13T10:57:25.586Z,22.00
2019-06-13T10:58:19.996Z,21.98
2019-06-13T10:59:18.513Z,21.85
2019-06-13T11:00:20.104Z,21.84
2019-06-13T11:01:20.410Z,21.94
2019-06-13T11:02:19.748Z,21.50
2019-06-13T11:03:18.446Z,21.58
2019-06-13T11:04:23.142Z,21.56
2019-06-13T11:05:19.789Z,21.77
2019-06-13T11:06:25.612Z,21.77
2019-06-13T11:07:19.614Z,22.01
2019-06-13T11:08:20.229Z,21.98
2019-06-13T11:09:18.963Z,22.36
2019-06-13T11:41:45.183Z,23.13
2019-06-13T11:42:45.183Z,22.92
2019-06-13T11:43:45.181Z,22.70
2019-06-13T11:44:45.154Z,22.59
2019-06-13T11:45:45.458Z,22.59
2019-06-13T11:46:45.350Z,22.61
2019-06-13T11:47:45.124Z,22.67
2019-06-13T11:48:45.116Z,22.74
2019-06-13T11:49:45.098Z,22.92
2019-06-13T11:50:45.086Z,23.13
2019-06-13T11:51:45.075Z,22.86
2019-06-13T11:52:45.069Z,22.77
2019-06-13T11:53:45.070Z,22.76
2019-06-13T11:54:45.043Z,22.81
2019-06-13T11:55:45.030Z,22.61
2019-06-13T11:56:45.034Z,22.61
2019-06-13T11:57:45.010Z,22.64
2019-06-13T11:58:44.997Z,22.46
2019-06-13T11:59:44.986Z,22.52
2019-06-13T12:00:45.482Z,22.49
2019-06-13T12:01:44.972Z,22.66
2019-06-13T12:02:44.970Z,22.88
2019-06-13T12:03:44.944Z,23.11
2019-06-13T12:04:44.930Z,23.17
2019-06-13T12:05:44.921Z,23.37
2019-06-13T12:06:44.908Z,23.48
2019-06-13T12:07:44.921Z,23.63
2019-06-13T12:08:44.889Z,23.91
2019-06-13T12:09:44.876Z,23.79
2019-06-13T12:10:46.510Z,23.33
2019-06-13T12:11:44.901Z,23.07
2019-06-13T12:12:44.843Z,23.04
2019-06-13T12:14:04.882Z,23.03
2019-06-13T12:14:44.825Z,23.01
2019-06-13T12:15:44.809Z,23.04
2019-06-13T12:16:44.952Z,22.92
2019-06-13T12:17:44.789Z,23.01
2019-06-13T12:18:44.783Z,22.99
2019-06-13T12:19:44.770Z,22.88
2019-06-13T12:20:44.817Z,22.93
2019-06-13T12:21:44.772Z,22.74
2019-06-13T12:22:44.737Z,22.62
2019-06-13T12:23:44.722Z,22.68
2019-06-13T12:24:44.722Z,22.81
2019-06-13T12:25:44.699Z,23.13
2019-06-13T12:26:44.689Z,23.36
2019-06-13T12:27:44.677Z,23.69
2019-06-13T12:28:44.678Z,23.88
2019-06-13T12:29:44.668Z,23.85
2019-06-13T12:30:44.656Z,24.07
2019-06-13T12:31:44.640Z,23.78
2019-06-13T12:32:44.624Z,23.61
2019-06-13T12:33:44.613Z,23.14
2019-06-13T12:34:44.604Z,23.21
2019-06-13T12:35:44.602Z,23.06
2019-06-13T12:36:44.578Z,22.96
2019-06-13T12:37:44.582Z,23.23
2019-06-13T12:38:44.559Z,23.37
2019-06-13T12:39:44.551Z,23.66
2019-06-13T12:40:44.538Z,24.00
2019-06-13T12:41:44.544Z,23.91
2019-06-13T12:42:44.516Z,23.89
2019-06-13T12:43:44.509Z,23.89
2019-06-13T12:44:44.499Z,23.55
2019-06-13T12:45:44.488Z,23.52
2019-06-13T12:46:44.477Z,23.55
2019-06-13T12:47:44.468Z,23.63
2019-06-13T12:48:44.457Z,23.14
2019-06-13T12:49:44.444Z,23.10
2019-06-13T12:50:44.499Z,23.39
2019-06-13T12:51:44.426Z,23.69
2019-06-13T12:52:44.407Z,23.89
2019-06-13T12:53:44.398Z,23.85
2019-06-13T12:54:44.387Z,23.64
2019-06-13T12:55:44.377Z,23.37
2019-06-13T12:56:44.370Z,23.42
2019-06-13T12:57:44.360Z,23.36
2019-06-13T12:58:44.350Z,23.23
2019-06-13T12:59:44.334Z,23.22
2019-06-13T13:00:44.332Z,23.14
2019-06-13T13:01:44.332Z,23.21
2019-06-13T13:02:44.300Z,23.22
2019-06-13T13:03:44.362Z,23.13
2019-06-13T13:04:44.278Z,23.31
2019-06-13T13:05:44.268Z,23.15
2019-06-13T13:06:44.257Z,23.08
2019-06-13T13:07:44.459Z,23.13
2019-06-13T13:08:44.240Z,23.17
2019-06-13T13:09:44.225Z,23.37
2019-06-13T13:10:44.223Z,23.64
2019-06-13T13:11:44.201Z,23.85
2019-06-13T13:12:44.198Z,23.84
2019-06-13T13:13:44.185Z,24.15
2019-06-13T13:14:47.398Z,24.19
2019-06-13T13:15:44.165Z,24.29
2019-06-13T13:16:44.149Z,24.34
2019-06-13T13:17:44.148Z,24.36
2019-06-13T13:18:44.142Z,24.40
2019-06-13T13:19:44.129Z,24.52
2019-06-13T13:20:44.128Z,24.43
2019-06-13T13:21:44.101Z,24.62
2019-06-13T13:22:45.597Z,24.62
2019-06-13T13:23:44.082Z,24.63
2019-06-13T13:24:44.095Z,24.38
2019-06-13T13:25:44.062Z,23.96
2019-06-13T13:26:44.062Z,23.94
2019-06-13T13:27:48.290Z,23.85
2019-06-13T13:28:44.031Z,24.01
2019-06-13T13:29:44.018Z,24.06
2019-06-13T13:30:44.011Z,24.10
2019-06-13T13:31:43.996Z,24.22
2019-06-13T13:32:43.988Z,24.36
2019-06-13T13:33:43.976Z,24.11
2019-06-13T13:34:43.971Z,24.31
2019-06-13T13:36:05.734Z,24.41
2019-06-13T13:36:43.947Z,24.55
2019-06-13T13:37:43.946Z,24.65
2019-06-13T13:38:43.927Z,24.60
2019-06-13T13:39:44.932Z,24.44
2019-06-13T13:41:00.210Z,24.40
2019-06-13T13:41:43.903Z,24.06
2019-06-13T13:42:43.884Z,23.81
2019-06-13T13:43:43.875Z,23.63
2019-06-13T13:45:04.864Z,23.74
2019-06-13T13:45:43.856Z,23.56